Time;durP1;ratioP1;P1;durP2;ratioP2;P2;SDS_P1;SDS_P2;PMS_P1;PMS_P2;Temp;Humidity;BMP_temperature;BMP_pressure;BME280_temperature;BME280_humidity;BME280_pressure;Samples;Min_cycle;Max_cycle;Signal;HPM_P1;HPM_P2
2020/12/28 00:00:18;;;;;;;0.63;0.37;;;;;;;7.40;100.00;94815.69;5008635;28;20210;-74
2020/12/28 00:02:45;;;;;;;0.70;0.60;;;;;;;7.24;100.00;94809.53;4998229;28;20234;-73
2020/12/28 00:05:13;;;;;;;0.77;0.50;;;;;;;7.38;100.00;94804.56;5007569;28;20221;-75
2020/12/28 00:07:40;;;;;;;1.00;0.60;;;;;;;7.25;100.00;94799.72;5004491;28;20247;-75
2020/12/28 00:10:10;;;;;;;0.40;0.40;;;;;;;7.31;100.00;94799.47;5007900;28;20213;-73
2020/12/28 00:12:47;;;;;;;0.63;0.40;;;;;;;7.30;100.00;94805.84;5000574;28;20207;-73
2020/12/28 00:15:16;;;;;;;0.40;0.30;;;;;;;7.24;100.00;94801.56;5001103;28;20246;-75
2020/12/28 00:17:45;;;;;;;0.30;0.30;;;;;;;7.13;100.00;94799.94;5001010;28;20207;-74
2020/12/28 00:20:12;;;;;;;2.53;0.90;;;;;;;7.07;100.00;94797.50;5009935;28;20211;-75
2020/12/28 00:22:39;;;;;;;0.70;0.50;;;;;;;6.98;100.00;94793.72;5005152;28;20227;-73
2020/12/28 00:25:06;;;;;;;1.03;0.50;;;;;;;6.65;100.00;94784.25;5009753;28;20208;-74
2020/12/28 00:27:33;;;;;;;1.00;0.60;;;;;;;6.93;100.00;94791.06;5000958;28;20672;-73
2020/12/28 00:30:00;;;;;;;0.90;0.60;;;;;;;6.95;100.00;94786.31;4998860;28;20266;-73
2020/12/28 00:32:27;;;;;;;0.77;0.47;;;;;;;6.63;100.00;94782.91;5004219;28;20199;-76
2020/12/28 00:34:55;;;;;;;0.50;0.43;;;;;;;6.82;100.00;94781.47;5008167;28;20231;-77
2020/12/28 00:37:21;;;;;;;1.10;0.50;;;;;;;6.68;100.00;94786.41;5003496;28;20200;-73
2020/12/28 00:39:48;;;;;;;0.67;0.40;;;;;;;6.81;100.00;94785.16;5006030;28;20249;-74
2020/12/28 00:42:15;;;;;;;0.40;0.40;;;;;;;6.82;100.00;94776.97;5001431;28;20231;-74
2020/12/28 00:44:42;;;;;;;0.40;0.40;;;;;;;6.94;100.00;94766.94;4999037;28;20203;-74
2020/12/28 00:47:09;;;;;;;0.50;0.37;;;;;;;6.85;100.00;94779.09;5002381;28;20237;-75
2020/12/28 00:49:36;;;;;;;1.90;0.73;;;;;;;6.82;100.00;94776.16;5007498;28;20223;-73
2020/12/28 00:52:04;;;;;;;1.27;0.50;;;;;;;6.61;100.00;94779.72;5002803;28;20206;-77
2020/12/28 00:54:32;;;;;;;0.50;0.40;;;;;;;6.84;100.00;94780.16;5007548;28;20215;-74
2020/12/28 00:56:59;;;;;;;0.37;0.37;;;;;;;6.79;100.00;94776.66;5011633;28;20217;-74
2020/12/28 00:59:26;;;;;;;0.60;0.43;;;;;;;6.89;100.00;94764.28;5009110;28;20226;-72
2020/12/28 01:01:54;;;;;;;1.03;0.40;;;;;;;6.96;100.00;94769.34;5008886;28;20238;-76
2020/12/28 01:04:21;;;;;;;0.40;0.40;;;;;;;6.63;100.00;94772.31;5004185;28;20667;-75
2020/12/28 01:06:48;;;;;;;0.40;0.40;;;;;;;7.05;100.00;94765.16;5003659;28;20202;-74
2020/12/28 01:09:16;;;;;;;0.50;0.43;;;;;;;7.13;100.00;94768.13;4998576;28;20246;-74
2020/12/28 01:11:42;;;;;;;0.30;0.30;;;;;;;6.86;100.00;94762.13;5003715;28;20202;-74
2020/12/28 01:14:10;;;;;;;1.00;0.60;;;;;;;6.94;100.00;94752.88;5002854;28;20691;-75
2020/12/28 01:16:36;;;;;;;0.27;0.27;;;;;;;7.05;100.00;94759.88;5003388;28;20215;-73
2020/12/28 01:19:04;;;;;;;0.57;0.50;;;;;;;7.08;100.00;94752.19;5005931;28;20239;-73
2020/12/28 01:21:31;;;;;;;0.40;0.40;;;;;;;7.18;100.00;94760.19;4996255;28;20231;-72
2020/12/28 01:23:58;;;;;;;0.50;0.50;;;;;;;7.17;100.00;94769.22;5008638;28;20667;-74
2020/12/28 01:26:25;;;;;;;0.50;0.40;;;;;;;7.08;100.00;94767.28;5007478;28;20204;-74
2020/12/28 01:28:52;;;;;;;0.40;0.40;;;;;;;7.19;100.00;94771.56;5003989;28;20252;-74
2020/12/28 01:31:19;;;;;;;0.50;0.40;;;;;;;7.29;100.00;94771.63;5000258;28;20207;-74
2020/12/28 01:33:46;;;;;;;0.40;0.40;;;;;;;7.13;100.00;94775.25;4998336;28;20207;-75
2020/12/28 01:36:12;;;;;;;0.53;0.50;;;;;;;7.31;100.00;94777.47;5007439;28;20211;-73
2020/12/28 01:38:39;;;;;;;0.60;0.40;;;;;;;7.12;100.00;94781.63;4999034;28;20231;-75
2020/12/28 01:41:06;;;;;;;0.50;0.47;;;;;;;7.18;100.00;94781.41;5007319;28;20210;-73
2020/12/28 01:43:34;;;;;;;1.27;0.60;;;;;;;7.31;100.00;94778.25;5000628;28;20210;-74
2020/12/28 01:46:01;;;;;;;0.77;0.53;;;;;;;7.31;100.00;94772.97;5007847;28;20310;-73
2020/12/28 01:48:29;;;;;;;0.70;0.50;;;;;;;7.24;100.00;94775.06;5001938;28;20227;-73
2020/12/28 01:50:56;;;;;;;0.60;0.50;;;;;;;7.30;100.00;94765.28;5005531;28;20218;-74
2020/12/28 01:53:23;;;;;;;0.67;0.40;;;;;;;7.14;100.00;94772.34;5006953;28;20217;-74
2020/12/28 01:55:55;;;;;;;0.73;0.47;;;;;;;7.11;100.00;94780.03;5008589;28;20229;-73
2020/12/28 01:58:22;;;;;;;0.50;0.50;;;;;;;7.14;100.00;94764.41;4996264;28;20252;-75
2020/12/28 02:00:49;;;;;;;0.70;0.50;;;;;;;7.10;100.00;94765.97;5006531;28;20219;-74
2020/12/28 02:03:16;;;;;;;0.60;0.40;;;;;;;7.19;100.00;94763.63;5007208;28;20624;-75
2020/12/28 02:05:43;;;;;;;1.40;0.50;;;;;;;7.16;100.00;94770.25;5001380;28;20691;-74
2020/12/28 02:08:10;;;;;;;0.47;0.40;;;;;;;7.31;100.00;94777.47;5002139;28;20237;-73
2020/12/28 02:10:37;;;;;;;1.07;0.57;;;;;;;7.12;100.00;94769.19;5013299;28;20203;-76
2020/12/28 02:13:04;;;;;;;0.83;0.40;;;;;;;7.03;100.00;94761.97;5012971;28;20206;-74
2020/12/28 02:15:30;;;;;;;2.43;0.60;;;;;;;7.19;100.00;94767.09;5005337;28;21260;-74
2020/12/28 02:17:58;;;;;;;0.60;0.50;;;;;;;7.00;100.00;94773.88;5003659;28;20227;-75
2020/12/28 02:20:25;;;;;;;0.57;0.57;;;;;;;7.18;100.00;94762.84;5007459;28;20203;-73
2020/12/28 02:22:53;;;;;;;0.50;0.50;;;;;;;7.16;100.00;94756.97;5004695;28;20219;-73
2020/12/28 02:25:19;;;;;;;0.50;0.50;;;;;;;6.94;100.00;94761.66;5003552;28;20207;-72
2020/12/28 02:27:46;;;;;;;0.90;0.60;;;;;;;6.97;100.00;94750.56;5011794;28;20222;-76
2020/12/28 02:30:13;;;;;;;0.83;0.60;;;;;;;6.93;100.00;94757.41;5006172;28;20271;-75
2020/12/28 02:32:40;;;;;;;0.53;0.50;;;;;;;6.85;100.00;94741.22;5009456;28;20201;-75
2020/12/28 02:35:07;;;;;;;0.70;0.70;;;;;;;6.96;100.00;94748.94;5005069;28;20260;-73
2020/12/28 02:37:33;;;;;;;0.93;0.57;;;;;;;6.83;100.00;94746.75;5001907;28;20277;-75
2020/12/28 02:40:01;;;;;;;0.43;0.40;;;;;;;6.69;100.00;94737.66;5006943;28;20739;-73
2020/12/28 02:42:28;;;;;;;1.23;0.60;;;;;;;6.57;100.00;94731.78;5013728;28;20230;-74
2020/12/28 02:44:55;;;;;;;0.50;0.43;;;;;;;6.70;100.00;94730.53;5011234;28;20350;-74
2020/12/28 02:47:21;;;;;;;0.80;0.60;;;;;;;6.59;100.00;94720.91;5010963;28;20212;-74
2020/12/28 02:49:48;;;;;;;0.87;0.50;;;;;;;6.67;100.00;94723.06;5011034;28;20699;-75
2020/12/28 02:52:15;;;;;;;2.20;0.50;;;;;;;6.61;100.00;94718.81;5008215;28;20666;-74
2020/12/28 02:54:42;;;;;;;0.50;0.50;;;;;;;6.42;100.00;94718.44;5008448;28;20675;-75
2020/12/28 02:57:09;;;;;;;0.40;0.40;;;;;;;6.57;100.00;94718.53;5009222;28;20302;-74
2020/12/28 02:59:36;;;;;;;0.60;0.50;;;;;;;6.54;100.00;94726.19;5003900;28;20283;-76
2020/12/28 03:02:03;;;;;;;0.50;0.50;;;;;;;6.20;100.00;94730.19;5010311;28;20237;-76
2020/12/28 03:04:30;;;;;;;0.60;0.50;;;;;;;6.44;100.00;94726.91;5004660;28;20687;-74
2020/12/28 03:06:56;;;;;;;0.40;0.40;;;;;;;6.58;100.00;94728.06;5011609;28;20207;-75
2020/12/28 03:09:23;;;;;;;0.70;0.60;;;;;;;6.55;100.00;94715.31;5011510;28;20304;-75
2020/12/28 03:11:50;;;;;;;0.80;0.60;;;;;;;6.57;100.00;94715.88;5004936;28;20209;-74
2020/12/28 03:14:18;;;;;;;0.73;0.60;;;;;;;6.32;100.00;94699.81;5000975;28;20218;-75
2020/12/28 03:16:45;;;;;;;1.00;0.50;;;;;;;6.34;100.00;94704.88;5004858;28;20666;-74
2020/12/28 03:19:11;;;;;;;1.30;0.70;;;;;;;6.22;100.00;94720.94;5003689;28;20225;-74
2020/12/28 03:21:38;;;;;;;0.50;0.50;;;;;;;6.09;100.00;94726.63;5010871;28;20221;-74
2020/12/28 03:24:05;;;;;;;1.47;0.77;;;;;;;6.12;100.00;94718.22;5003952;28;20210;-76
2020/12/28 03:26:32;;;;;;;0.50;0.50;;;;;;;6.03;100.00;94714.44;5008361;28;20209;-74
2020/12/28 03:28:58;;;;;;;0.83;0.60;;;;;;;6.22;100.00;94698.94;5011570;28;20227;-75
2020/12/28 03:31:28;;;;;;;0.60;0.57;;;;;;;6.18;100.00;94711.09;5008890;28;20207;-75
2020/12/28 03:33:55;;;;;;;1.17;0.80;;;;;;;5.95;100.00;94717.53;5011633;28;20674;-75
2020/12/28 03:36:22;;;;;;;0.47;0.47;;;;;;;6.15;100.00;94722.19;5008370;28;20212;-75
2020/12/28 03:38:49;;;;;;;0.70;0.50;;;;;;;6.24;100.00;94718.81;5005189;28;20225;-74
2020/12/28 03:41:15;;;;;;;0.50;0.50;;;;;;;6.04;100.00;94721.31;5005285;28;20640;-74
2020/12/28 03:43:42;;;;;;;0.50;0.40;;;;;;;6.18;100.00;94719.84;5002755;28;20547;-75
2020/12/28 03:46:09;;;;;;;1.03;0.70;;;;;;;6.20;100.00;94712.44;5010056;28;20204;-74
2020/12/28 03:48:37;;;;;;;0.60;0.40;;;;;;;6.02;100.00;94698.78;5005802;28;20236;-76
2020/12/28 03:51:03;;;;;;;0.47;0.37;;;;;;;6.20;100.00;94696.53;5003088;28;20221;-75
2020/12/28 03:53:30;;;;;;;0.40;0.40;;;;;;;5.85;100.00;94692.84;5010076;28;20803;-77
2020/12/28 03:55:57;;;;;;;0.37;0.30;;;;;;;6.07;100.00;94689.06;5001496;28;21297;-75
2020/12/28 03:58:24;;;;;;;0.77;0.60;;;;;;;6.01;100.00;94679.50;5001506;28;20225;-75
2020/12/28 04:00:51;;;;;;;0.53;0.40;;;;;;;6.14;100.00;94662.38;5006077;28;20222;-75
2020/12/28 04:03:17;;;;;;;0.80;0.50;;;;;;;6.14;100.00;94671.09;4999431;28;20236;-75
2020/12/28 04:05:45;;;;;;;0.80;0.70;;;;;;;6.08;100.00;94679.25;5011365;28;20204;-75
2020/12/28 04:08:12;;;;;;;1.83;0.70;;;;;;;5.98;100.00;94671.25;5007624;28;20241;-76
2020/12/28 04:10:39;;;;;;;0.87;0.47;;;;;;;5.86;100.00;94676.72;5003494;28;20206;-75
2020/12/28 04:13:05;;;;;;;0.47;0.47;;;;;;;5.90;100.00;94669.84;5009848;28;20208;-74
2020/12/28 04:15:32;;;;;;;1.00;0.60;;;;;;;5.79;100.00;94662.84;4999747;28;20291;-77
2020/12/28 04:17:59;;;;;;;1.10;0.50;;;;;;;5.72;100.00;94677.34;5001629;28;20270;-76
2020/12/28 04:20:26;;;;;;;1.23;0.60;;;;;;;5.72;100.00;94666.75;5009138;28;20230;-75
2020/12/28 04:22:53;;;;;;;0.57;0.50;;;;;;;5.64;100.00;94673.31;5007748;28;20232;-77
2020/12/28 04:25:20;;;;;;;0.80;0.60;;;;;;;5.69;100.00;94667.28;5005149;28;20204;-77
2020/12/28 04:27:47;;;;;;;0.60;0.50;;;;;;;5.78;100.00;94673.72;5010626;28;20212;-77
2020/12/28 04:30:14;;;;;;;0.83;0.60;;;;;;;5.81;100.00;94667.94;5008849;28;20234;-75
2020/12/28 04:32:40;;;;;;;0.87;0.50;;;;;;;5.85;100.00;94667.16;5010427;28;20669;-76
2020/12/28 04:35:07;;;;;;;0.60;0.60;;;;;;;5.86;100.00;94678.56;5007608;28;20286;-77
2020/12/28 04:37:34;;;;;;;0.33;0.30;;;;;;;5.88;100.00;94669.31;5002917;28;20214;-75
2020/12/28 04:40:02;;;;;;;0.93;0.50;;;;;;;5.69;100.00;94685.81;5001317;28;20212;-75
2020/12/28 04:42:29;;;;;;;0.53;0.40;;;;;;;5.52;100.00;94685.09;5001912;28;20627;-74
2020/12/28 04:44:56;;;;;;;0.30;0.30;;;;;;;5.68;100.00;94668.34;5010339;28;20262;-76
2020/12/28 04:47:23;;;;;;;0.57;0.43;;;;;;;5.71;100.00;94663.34;5003519;28;20414;-76
2020/12/28 04:49:51;;;;;;;0.43;0.30;;;;;;;5.72;100.00;94661.47;4999609;28;20221;-74
2020/12/28 04:52:18;;;;;;;0.30;0.30;;;;;;;5.72;100.00;94672.06;5009274;28;20208;-74
2020/12/28 04:54:48;;;;;;;0.40;0.40;;;;;;;5.70;100.00;94674.16;5002252;28;20268;-73
2020/12/28 04:57:15;;;;;;;0.40;0.40;;;;;;;5.68;100.00;94655.13;5007641;28;20217;-77
2020/12/28 04:59:42;;;;;;;1.80;0.33;;;;;;;5.71;100.00;94651.94;5009763;28;20232;-76
2020/12/28 05:02:09;;;;;;;0.60;0.50;;;;;;;5.84;100.00;94648.94;5008159;28;20279;-74
2020/12/28 05:04:36;;;;;;;2.10;0.47;;;;;;;5.70;100.00;94642.44;5009143;28;20380;-71
2020/12/28 05:07:04;;;;;;;0.30;0.30;;;;;;;5.78;100.00;94653.34;5012379;28;20203;-75
2020/12/28 05:09:32;;;;;;;0.83;0.50;;;;;;;5.65;100.00;94651.13;5006963;28;20234;-73
2020/12/28 05:12:00;;;;;;;0.40;0.30;;;;;;;5.76;100.00;94650.16;5001619;28;20682;-75
2020/12/28 05:14:28;;;;;;;2.13;0.40;;;;;;;5.70;100.00;94632.66;5001282;28;20216;-75
2020/12/28 05:16:59;;;;;;;0.40;0.40;;;;;;;5.50;100.00;94635.13;5005394;28;20209;-74
2020/12/28 05:19:26;;;;;;;0.40;0.40;;;;;;;5.78;100.00;94637.47;5002780;28;20228;-76
2020/12/28 05:21:53;;;;;;;0.77;0.50;;;;;;;5.88;100.00;94637.56;4999460;28;20237;-74
2020/12/28 05:24:20;;;;;;;0.97;0.40;;;;;;;5.85;100.00;94637.28;5008361;28;20209;-76
2020/12/28 05:26:47;;;;;;;0.97;0.40;;;;;;;5.60;100.00;94637.88;5005784;28;20721;-75
2020/12/28 05:29:15;;;;;;;0.37;0.37;;;;;;;5.93;100.00;94639.44;4999457;28;20236;-75
2020/12/28 05:31:44;;;;;;;0.50;0.50;;;;;;;5.85;100.00;94629.34;5003492;28;20214;-75
2020/12/28 05:34:13;;;;;;;0.30;0.30;;;;;;;5.90;100.00;94639.97;5010467;28;20210;-72
2020/12/28 05:36:40;;;;;;;0.53;0.40;;;;;;;5.91;100.00;94641.56;5004368;28;20205;-76
2020/12/28 05:39:08;;;;;;;1.13;0.50;;;;;;;5.91;100.00;94655.59;4997334;28;20244;-75
2020/12/28 05:41:34;;;;;;;0.40;0.40;;;;;;;5.95;100.00;94653.25;5006592;28;20204;-75
2020/12/28 05:44:11;;;;;;;0.70;0.40;;;;;;;6.02;100.00;94645.88;5001837;28;20205;-73
2020/12/28 05:46:38;;;;;;;0.70;0.40;;;;;;;6.05;100.00;94648.78;5010081;28;20239;-75
2020/12/28 05:49:08;;;;;;;2.63;0.47;;;;;;;6.07;100.00;94649.38;5000846;28;20311;-76
2020/12/28 05:51:36;;;;;;;0.30;0.30;;;;;;;6.03;100.00;94650.91;5005922;28;20214;-76
2020/12/28 05:54:11;;;;;;;0.27;0.27;;;;;;;5.98;100.00;94652.72;5003071;28;20210;-74
2020/12/28 05:56:43;;;;;;;0.67;0.50;;;;;;;6.06;100.00;94646.97;5008056;28;20204;-72
2020/12/28 05:59:12;;;;;;;0.30;0.30;;;;;;;5.77;100.00;94650.94;5005407;28;20229;-75
2020/12/28 06:01:43;;;;;;;1.90;0.30;;;;;;;6.04;100.00;94646.44;5010559;28;20199;-73
2020/12/28 06:04:14;;;;;;;0.30;0.30;;;;;;;5.92;100.00;94651.91;5011021;28;20639;-74
2020/12/28 06:06:42;;;;;;;1.00;0.63;;;;;;;5.64;100.00;94651.38;5003896;28;20216;-74
2020/12/28 06:09:09;;;;;;;0.83;0.50;;;;;;;5.63;100.00;94647.91;5000278;28;20308;-74
2020/12/28 06:11:36;;;;;;;0.57;0.30;;;;;;;5.68;100.00;94647.97;5008090;28;20205;-74
2020/12/28 06:14:13;;;;;;;0.20;0.20;;;;;;;5.88;100.00;94658.75;5008179;28;20209;-74
2020/12/28 06:16:40;;;;;;;0.53;0.40;;;;;;;5.97;100.00;94654.56;5001991;28;20258;-74
2020/12/28 06:19:07;;;;;;;0.40;0.40;;;;;;;5.88;100.00;94652.63;5003900;28;20328;-74
2020/12/28 06:21:38;;;;;;;0.30;0.30;;;;;;;5.85;100.00;94651.28;5003381;28;20217;-77
2020/12/28 06:24:05;;;;;;;0.43;0.40;;;;;;;5.83;100.00;94661.34;5008665;28;20210;-73
2020/12/28 06:26:31;;;;;;;2.03;0.23;;;;;;;5.90;100.00;94664.56;5002366;28;20213;-74
2020/12/28 06:29:05;;;;;;;0.30;0.23;;;;;;;5.99;100.00;94662.28;5010646;28;20598;-75
2020/12/28 06:31:32;;;;;;;0.37;0.30;;;;;;;5.93;100.00;94663.25;5004338;28;20686;-75
2020/12/28 06:33:59;;;;;;;1.10;0.30;;;;;;;6.03;100.00;94658.03;5003465;28;20201;-74
2020/12/28 06:36:26;;;;;;;0.30;0.30;;;;;;;5.75;100.00;94660.97;5004504;28;20205;-74
2020/12/28 06:38:58;;;;;;;0.93;0.40;;;;;;;6.04;100.00;94657.78;5008047;28;20282;-73
2020/12/28 06:41:26;;;;;;;0.83;0.60;;;;;;;5.90;100.00;94658.50;5000696;28;20209;-74
2020/12/28 06:43:54;;;;;;;0.80;0.50;;;;;;;5.86;100.00;94660.03;5002047;28;20225;-74
2020/12/28 06:46:23;;;;;;;0.40;0.40;;;;;;;5.58;100.00;94657.69;5006086;28;20205;-74
2020/12/28 06:48:50;;;;;;;0.50;0.50;;;;;;;5.77;100.00;94651.75;5008759;28;20240;-75
2020/12/28 06:51:17;;;;;;;0.50;0.40;;;;;;;5.97;100.00;94646.63;5004692;28;20210;-76
2020/12/28 06:53:44;;;;;;;0.50;0.40;;;;;;;5.91;100.00;94658.25;5003147;28;20213;-74
2020/12/28 06:56:11;;;;;;;0.77;0.50;;;;;;;6.01;100.00;94650.38;5008097;28;20213;-75
2020/12/28 06:58:38;;;;;;;0.97;0.83;;;;;;;5.98;100.00;94647.41;5012161;28;20229;-73
2020/12/28 07:01:06;;;;;;;4.83;1.97;;;;;;;5.93;100.00;94645.53;5011970;28;20206;-76
2020/12/28 07:03:34;;;;;;;3.63;1.40;;;;;;;5.91;100.00;94652.94;5002661;28;20233;-76
2020/12/28 07:06:01;;;;;;;1.97;0.80;;;;;;;5.78;100.00;94655.97;5007491;28;20216;-75
2020/12/28 07:08:28;;;;;;;0.97;0.50;;;;;;;5.83;100.00;94656.06;5007877;28;20237;-73
2020/12/28 07:11:02;;;;;;;0.47;0.43;;;;;;;5.83;100.00;94658.69;5007875;28;20594;-74
2020/12/28 07:13:30;;;;;;;0.47;0.40;;;;;;;5.82;100.00;94654.47;5012899;28;20209;-76
2020/12/28 07:16:03;;;;;;;0.97;0.40;;;;;;;5.79;100.00;94665.50;5011343;28;20210;-75
2020/12/28 07:18:30;;;;;;;0.80;0.40;;;;;;;5.80;100.00;94661.88;5012378;28;20239;-76
2020/12/28 07:20:57;;;;;;;0.70;0.30;;;;;;;5.53;100.00;94663.69;5003623;28;20207;-77
2020/12/28 07:23:25;;;;;;;0.50;0.20;;;;;;;5.65;100.00;94669.66;5002131;28;20230;-73
2020/12/28 07:26:03;;;;;;;0.77;0.50;;;;;;;5.47;100.00;94667.34;5000460;28;20211;-74
2020/12/28 07:28:31;;;;;;;0.80;0.50;;;;;;;5.71;100.00;94654.59;5003095;28;20632;-75
2020/12/28 07:30:58;;;;;;;0.77;0.50;;;;;;;5.61;100.00;94654.50;5005627;28;20298;-76
2020/12/28 07:33:25;;;;;;;0.83;0.60;;;;;;;5.71;100.00;94652.75;5005428;28;20214;-76
2020/12/28 07:36:05;;;;;;;0.63;0.47;;;;;;;5.70;100.00;94650.38;5008140;28;20213;-76
2020/12/28 07:38:33;;;;;;;0.43;0.43;;;;;;;5.50;100.00;94650.19;5001514;28;20229;-75
2020/12/28 07:41:00;;;;;;;0.50;0.30;;;;;;;5.46;100.00;94647.25;5011515;28;20219;-75
2020/12/28 07:43:28;;;;;;;2.30;0.80;;;;;;;5.77;100.00;94641.16;5010679;28;20230;-75
2020/12/28 07:46:00;;;;;;;0.90;0.90;;;;;;;5.75;100.00;94645.13;5003450;28;20202;-74
2020/12/28 07:48:27;;;;;;;0.73;0.50;;;;;;;5.80;100.00;94640.72;5003753;28;20233;-75
2020/12/28 07:50:54;;;;;;;2.10;0.80;;;;;;;5.74;100.00;94636.38;5008117;28;20214;-75
2020/12/28 07:53:25;;;;;;;0.50;0.50;;;;;;;5.70;100.00;94634.50;5011393;28;21658;-75
2020/12/28 07:55:57;;;;;;;2.40;0.70;;;;;;;5.66;100.00;94628.91;5011648;28;20207;-75
2020/12/28 07:58:31;;;;;;;0.60;0.50;;;;;;;5.72;100.00;94627.09;5009040;28;20226;-74
2020/12/28 08:00:59;;;;;;;1.20;0.60;;;;;;;5.81;100.00;94622.97;5007798;28;20202;-75
2020/12/28 08:03:31;;;;;;;1.43;0.73;;;;;;;5.73;100.00;94623.41;5008533;28;20224;-76
2020/12/28 08:06:04;;;;;;;1.53;0.60;;;;;;;5.66;100.00;94630.75;4998558;28;20220;-76
2020/12/28 08:08:31;;;;;;;3.27;0.77;;;;;;;5.86;100.00;94626.47;5010298;28;20239;-75
2020/12/28 08:10:59;;;;;;;2.00;0.63;;;;;;;5.76;100.00;94625.53;5002169;28;20209;-76
2020/12/28 08:13:27;;;;;;;1.07;0.60;;;;;;;5.79;100.00;94615.25;5003693;28;20209;-74
2020/12/28 08:15:54;;;;;;;1.17;0.67;;;;;;;5.54;100.00;94619.56;5008479;28;20206;-75
2020/12/28 08:18:22;;;;;;;1.20;0.80;;;;;;;5.58;100.00;94616.16;5003783;28;20230;-75
2020/12/28 08:20:58;;;;;;;1.00;0.60;;;;;;;5.88;100.00;94618.25;5007590;28;20211;-76
2020/12/28 08:23:27;;;;;;;1.10;0.80;;;;;;;5.81;100.00;94607.91;5003950;28;20307;-74
2020/12/28 08:25:53;;;;;;;1.83;0.90;;;;;;;5.72;100.00;94612.03;5008257;28;20481;-76
2020/12/28 08:28:20;;;;;;;1.90;0.70;;;;;;;5.72;100.00;94611.22;5004709;28;20229;-75
2020/12/28 08:30:48;;;;;;;1.73;0.77;;;;;;;5.65;100.00;94619.41;5007996;28;20292;-82
2020/12/28 08:33:18;;;;;;;2.10;0.70;;;;;;;5.66;100.00;94617.53;5014194;28;20206;-78
2020/12/28 08:35:49;;;;;;;1.13;0.70;;;;;;;5.66;100.00;94612.25;5012455;28;20205;-85
2020/12/28 08:38:16;;;;;;;1.60;0.43;;;;;;;5.62;100.00;94622.53;5012429;28;20708;-82
2020/12/28 08:40:54;;;;;;;0.97;0.40;;;;;;;5.69;100.00;94628.41;5011039;28;20225;-77
2020/12/28 08:43:21;;;;;;;1.07;0.70;;;;;;;5.68;100.00;94623.38;5016585;28;20262;-83
2020/12/28 08:45:48;;;;;;;0.33;0.30;;;;;;;5.63;100.00;94624.13;5017595;28;20211;-81
2020/12/28 08:48:22;;;;;;;1.23;0.50;;;;;;;5.72;100.00;94608.56;5017453;28;20225;-85
2020/12/28 08:50:50;;;;;;;0.33;0.33;;;;;;;5.77;100.00;94598.03;5017335;28;20296;-84
2020/12/28 08:53:22;;;;;;;1.07;0.50;;;;;;;5.78;100.00;94603.06;5012523;28;20294;-77
2020/12/28 08:55:58;;;;;;;0.33;0.33;;;;;;;5.76;100.00;94607.84;5005587;28;20674;-83
2020/12/28 08:58:25;;;;;;;0.30;0.30;;;;;;;5.76;100.00;94609.66;5010789;28;20227;-79
2020/12/28 09:00:52;;;;;;;0.27;0.20;;;;;;;5.86;100.00;94601.84;5009352;28;20201;-81
2020/12/28 09:03:19;;;;;;;0.67;0.30;;;;;;;5.98;100.00;94603.25;5010121;28;20260;-79
2020/12/28 09:05:45;;;;;;;0.53;0.30;;;;;;;6.05;100.00;94616.25;5011673;28;20209;-79
2020/12/28 09:08:13;;;;;;;0.43;0.43;;;;;;;6.23;100.00;94611.34;5014712;28;20272;-80
2020/12/28 09:10:40;;;;;;;2.63;0.60;;;;;;;6.06;100.00;94623.94;5009889;28;20273;-80
2020/12/28 09:13:07;;;;;;;1.77;0.90;;;;;;;5.75;100.00;94642.47;5009068;28;20209;-78
2020/12/28 09:15:34;;;;;;;1.57;0.73;;;;;;;5.90;100.00;94653.97;5000385;28;20620;-79
2020/12/28 09:18:00;;;;;;;0.87;0.50;;;;;;;5.86;100.00;94646.81;5005453;28;20225;-80
2020/12/28 09:20:27;;;;;;;0.87;0.60;;;;;;;5.55;100.00;94655.53;5011176;28;20567;-76
2020/12/28 09:22:54;;;;;;;1.80;0.67;;;;;;;5.92;100.00;94649.25;5003707;28;20249;-76
2020/12/28 09:25:22;;;;;;;0.57;0.50;;;;;;;5.84;100.00;94655.00;5010815;28;20283;-79
2020/12/28 09:27:48;;;;;;;0.60;0.60;;;;;;;6.11;100.00;94653.09;5011018;28;20268;-79
2020/12/28 09:30:15;;;;;;;0.87;0.60;;;;;;;6.00;100.00;94662.00;5009285;28;20218;-77
2020/12/28 09:32:42;;;;;;;0.40;0.40;;;;;;;5.89;100.00;94655.03;5003803;28;20663;-78
2020/12/28 09:35:09;;;;;;;0.83;0.70;;;;;;;6.08;100.00;94643.00;5002887;28;20623;-78
2020/12/28 09:37:36;;;;;;;1.40;0.80;;;;;;;6.05;100.00;94638.22;5001536;28;20233;-75
2020/12/28 09:40:03;;;;;;;1.13;0.60;;;;;;;6.05;100.00;94632.91;5002820;28;20585;-76
2020/12/28 09:42:31;;;;;;;0.83;0.50;;;;;;;5.83;100.00;94624.31;5003444;28;20238;-81
2020/12/28 09:44:58;;;;;;;0.83;0.50;;;;;;;5.83;100.00;94613.72;5007187;28;20211;-78
2020/12/28 09:47:25;;;;;;;0.70;0.40;;;;;;;6.11;100.00;94613.41;5005328;28;20627;-79
2020/12/28 09:49:52;;;;;;;0.60;0.40;;;;;;;5.95;100.00;94610.91;5005365;28;20306;-78
2020/12/28 09:52:18;;;;;;;1.40;0.47;;;;;;;6.02;100.00;94617.56;5002025;28;20257;-78
2020/12/28 09:54:45;;;;;;;1.30;0.60;;;;;;;6.30;100.00;94614.53;5004029;28;20224;-78
2020/12/28 09:57:13;;;;;;;1.67;0.60;;;;;;;6.47;100.00;94609.88;5009285;28;20685;-86
2020/12/28 09:59:40;;;;;;;0.33;0.33;;;;;;;6.38;100.00;94611.44;5007639;28;20237;-79
2020/12/28 10:02:08;;;;;;;2.50;0.80;;;;;;;6.48;100.00;94608.03;4999678;28;20241;-76
2020/12/28 10:04:35;;;;;;;0.90;0.57;;;;;;;6.55;100.00;94612.03;5000181;28;20216;-76
2020/12/28 10:07:02;;;;;;;1.03;0.50;;;;;;;6.68;100.00;94619.50;5005339;28;20208;-76
2020/12/28 10:09:29;;;;;;;0.47;0.40;;;;;;;6.28;100.00;94626.44;5001784;28;20292;-76
2020/12/28 10:11:56;;;;;;;0.70;0.70;;;;;;;6.58;100.00;94632.72;5007183;28;20208;-77
2020/12/28 10:14:23;;;;;;;1.33;0.70;;;;;;;6.11;100.00;94629.28;5013312;28;20674;-73
2020/12/28 10:16:50;;;;;;;1.30;1.00;;;;;;;6.17;100.00;94620.31;5004971;28;20208;-72
2020/12/28 10:19:17;;;;;;;1.20;1.10;;;;;;;6.47;100.00;94614.38;4999832;28;20234;-76
2020/12/28 10:21:44;;;;;;;1.40;1.07;;;;;;;6.32;100.00;94609.81;5011228;28;20268;-78
2020/12/28 10:24:11;;;;;;;0.90;0.80;;;;;;;6.14;100.00;94604.94;5003011;28;20230;-77
2020/12/28 10:26:37;;;;;;;1.30;1.07;;;;;;;6.50;100.00;94605.94;5011925;28;20640;-79
2020/12/28 10:29:04;;;;;;;2.13;1.10;;;;;;;6.30;100.00;94611.13;5009252;28;20280;-76
2020/12/28 10:31:31;;;;;;;2.30;1.27;;;;;;;6.39;100.00;94602.41;5006945;28;20206;-75
2020/12/28 10:33:59;;;;;;;3.97;1.20;;;;;;;6.49;100.00;94601.69;4998226;28;20196;-78
2020/12/28 10:36:28;;;;;;;1.90;0.93;;;;;;;6.35;100.00;94600.56;5006993;28;20273;-76
2020/12/28 10:38:57;;;;;;;2.83;1.10;;;;;;;6.72;100.00;94598.59;5015107;28;20295;-76
2020/12/28 10:41:25;;;;;;;1.03;0.90;;;;;;;6.52;100.00;94601.97;5010937;28;20215;-76
2020/12/28 10:43:51;;;;;;;2.33;1.13;;;;;;;6.90;100.00;94600.78;5002881;28;20223;-83
2020/12/28 10:46:19;;;;;;;2.73;1.30;;;;;;;6.89;100.00;94596.50;5005258;28;20202;-76
2020/12/28 10:48:45;;;;;;;2.60;1.13;;;;;;;6.30;100.00;94587.28;5009698;28;20233;-74
2020/12/28 10:51:13;;;;;;;1.50;1.27;;;;;;;6.27;100.00;94587.78;5009419;28;20214;-78
2020/12/28 10:53:40;;;;;;;2.47;1.33;;;;;;;6.26;100.00;94586.22;5011542;28;20197;-78
2020/12/28 10:56:07;;;;;;;2.30;1.40;;;;;;;6.65;100.00;94590.09;5008078;28;20577;-81
2020/12/28 10:58:34;;;;;;;3.43;1.50;;;;;;;6.68;100.00;94587.72;5008535;28;20230;-82
2020/12/28 11:01:02;;;;;;;2.03;1.30;;;;;;;6.65;100.00;94593.53;5010987;28;20238;-80
2020/12/28 11:03:28;;;;;;;2.63;1.37;;;;;;;6.65;100.00;94590.88;5013429;28;20651;-78
2020/12/28 11:05:55;;;;;;;2.33;1.73;;;;;;;6.86;100.00;94583.81;5018877;28;20207;-77
2020/12/28 11:08:23;;;;;;;2.37;1.50;;;;;;;6.92;100.00;94577.47;5018976;28;20235;-77
2020/12/28 11:10:50;;;;;;;2.73;1.53;;;;;;;6.99;100.00;94578.81;5012648;28;20314;-78
2020/12/28 11:13:17;;;;;;;1.50;1.37;;;;;;;6.51;100.00;94576.53;5005666;28;20318;-78
2020/12/28 11:15:44;;;;;;;2.43;1.73;;;;;;;6.82;100.00;94564.19;5003390;28;20206;-79
2020/12/28 11:18:11;;;;;;;2.30;1.50;;;;;;;6.71;100.00;94568.63;5011195;28;20230;-77
2020/12/28 11:20:38;;;;;;;1.70;1.30;;;;;;;6.88;100.00;94558.63;5006785;28;20204;-82
2020/12/28 11:23:05;;;;;;;2.43;1.27;;;;;;;6.76;100.00;94550.09;5031662;23;20237;-79
2020/12/28 11:25:33;;;;;;;1.73;1.33;;;;;;;6.77;100.00;94545.63;5012073;28;20188;-77
2020/12/28 11:28:00;;;;;;;1.80;1.10;;;;;;;6.60;100.00;94529.16;5004842;28;20195;-77
2020/12/28 11:30:27;;;;;;;3.57;1.30;;;;;;;6.74;100.00;94522.28;5012992;28;20210;-78
2020/12/28 11:32:54;;;;;;;2.83;1.50;;;;;;;6.68;100.00;94521.50;5006658;28;20220;-78
2020/12/28 11:35:21;;;;;;;2.03;1.23;;;;;;;6.71;100.00;94512.22;5008275;28;20199;-78